Terminal Aerodrome Forecast
Issued by NWS

Home | Current Version | Previous Version | Graphics & Text | Print | Product List | Glossary On
Versions: 1 2 3 4 5 6 7 8 9 10 11 12
000
FTUS43 KABR 251729
TAFPIR
TAF
KPIR 251729Z 2518/2618 31013KT P6SM SCT035
     FM260200 32007KT P6SM SCT250
     FM260400 03004KT P6SM SCT250
     FM261300 15005KT P6SM -SHRA OVC030=

USA.gov is the U.S. government's official web portal to all federal, state and local government web resources and services.